sensor_id;sensor_type;location;lat;lon;timestamp;P1;durP1;ratioP1;P2;durP2;ratioP2
62880;SDS011;48969;49.934;8.596;2022-10-04T00:00:22;13.00;;;9.30;;
62880;SDS011;48969;49.934;8.596;2022-10-04T00:02:49;10.10;;;7.85;;
62880;SDS011;48969;49.934;8.596;2022-10-04T00:05:15;11.25;;;8.18;;
62880;SDS011;48969;49.934;8.596;2022-10-04T00:07:45;14.23;;;8.25;;
62880;SDS011;48969;49.934;8.596;2022-10-04T00:12:49;12.80;;;8.38;;
62880;SDS011;48969;49.934;8.596;2022-10-04T00:17:41;10.60;;;7.35;;
62880;SDS011;48969;49.934;8.596;2022-10-04T00:25:35;8.68;;;7.35;;
62880;SDS011;48969;49.934;8.596;2022-10-04T00:33:42;8.48;;;7.40;;
62880;SDS011;48969;49.934;8.596;2022-10-04T00:41:29;9.80;;;7.25;;
62880;SDS011;48969;49.934;8.596;2022-10-04T00:43:58;11.02;;;7.57;;
62880;SDS011;48969;49.934;8.596;2022-10-04T00:46:24;8.90;;;7.13;;
62880;SDS011;48969;49.934;8.596;2022-10-04T00:48:55;11.55;;;7.07;;
62880;SDS011;48969;49.934;8.596;2022-10-04T00:51:34;9.40;;;7.60;;
62880;SDS011;48969;49.934;8.596;2022-10-04T00:54:03;12.32;;;7.65;;
62880;SDS011;48969;49.934;8.596;2022-10-04T01:01:21;10.73;;;8.25;;
62880;SDS011;48969;49.934;8.596;2022-10-04T01:03:47;11.68;;;8.20;;
62880;SDS011;48969;49.934;8.596;2022-10-04T01:06:13;12.45;;;7.53;;
62880;SDS011;48969;49.934;8.596;2022-10-04T01:08:55;11.20;;;8.38;;
62880;SDS011;48969;49.934;8.596;2022-10-04T01:11:28;10.55;;;9.07;;
62880;SDS011;48969;49.934;8.596;2022-10-04T01:13:58;11.48;;;8.75;;
62880;SDS011;48969;49.934;8.596;2022-10-04T01:16:26;11.00;;;8.75;;
62880;SDS011;48969;49.934;8.596;2022-10-04T01:18:51;11.05;;;8.50;;
62880;SDS011;48969;49.934;8.596;2022-10-04T01:23:45;9.70;;;8.55;;
62880;SDS011;48969;49.934;8.596;2022-10-04T01:28:58;10.98;;;8.85;;
62880;SDS011;48969;49.934;8.596;2022-10-04T01:31:27;9.43;;;8.10;;
62880;SDS011;48969;49.934;8.596;2022-10-04T01:33:53;10.90;;;7.40;;
62880;SDS011;48969;49.934;8.596;2022-10-04T01:36:18;9.30;;;7.22;;
62880;SDS011;48969;49.934;8.596;2022-10-04T01:38:44;9.57;;;6.78;;
62880;SDS011;48969;49.934;8.596;2022-10-04T01:41:09;12.50;;;7.18;;
62880;SDS011;48969;49.934;8.596;2022-10-04T01:43:36;11.93;;;6.68;;
62880;SDS011;48969;49.934;8.596;2022-10-04T01:46:12;9.55;;;7.30;;
62880;SDS011;48969;49.934;8.596;2022-10-04T01:48:40;10.10;;;7.68;;
62880;SDS011;48969;49.934;8.596;2022-10-04T01:51:12;11.68;;;8.07;;
62880;SDS011;48969;49.934;8.596;2022-10-04T01:53:46;10.25;;;7.47;;
62880;SDS011;48969;49.934;8.596;2022-10-04T01:56:14;9.02;;;7.28;;
62880;SDS011;48969;49.934;8.596;2022-10-04T02:01:09;9.25;;;7.60;;
62880;SDS011;48969;49.934;8.596;2022-10-04T02:03:38;9.75;;;7.15;;
62880;SDS011;48969;49.934;8.596;2022-10-04T02:06:07;9.35;;;7.35;;
62880;SDS011;48969;49.934;8.596;2022-10-04T02:08:34;8.98;;;6.47;;
62880;SDS011;48969;49.934;8.596;2022-10-04T02:11:01;9.15;;;6.95;;
62880;SDS011;48969;49.934;8.596;2022-10-04T02:13:28;8.77;;;6.75;;
62880;SDS011;48969;49.934;8.596;2022-10-04T02:15:57;9.35;;;5.60;;
62880;SDS011;48969;49.934;8.596;2022-10-04T02:18:23;7.82;;;6.63;;
62880;SDS011;48969;49.934;8.596;2022-10-04T02:20:49;9.50;;;6.85;;
62880;SDS011;48969;49.934;8.596;2022-10-04T02:23:16;10.07;;;6.50;;
62880;SDS011;48969;49.934;8.596;2022-10-04T02:25:42;9.00;;;7.00;;
62880;SDS011;48969;49.934;8.596;2022-10-04T02:28:10;8.95;;;7.07;;
62880;SDS011;48969;49.934;8.596;2022-10-04T02:30:37;9.07;;;6.55;;
62880;SDS011;48969;49.934;8.596;2022-10-04T02:33:02;9.98;;;7.05;;
62880;SDS011;48969;49.934;8.596;2022-10-04T02:35:36;9.35;;;7.07;;
62880;SDS011;48969;49.934;8.596;2022-10-04T02:38:21;10.60;;;6.97;;
62880;SDS011;48969;49.934;8.596;2022-10-04T02:40:55;10.70;;;6.93;;
62880;SDS011;48969;49.934;8.596;2022-10-04T02:43:26;11.30;;;7.90;;
62880;SDS011;48969;49.934;8.596;2022-10-04T02:45:56;10.15;;;7.53;;
62880;SDS011;48969;49.934;8.596;2022-10-04T02:48:34;10.45;;;7.60;;
62880;SDS011;48969;49.934;8.596;2022-10-04T02:51:06;11.75;;;8.10;;
62880;SDS011;48969;49.934;8.596;2022-10-04T02:56:14;8.85;;;7.03;;
62880;SDS011;48969;49.934;8.596;2022-10-04T02:58:40;9.95;;;7.68;;
62880;SDS011;48969;49.934;8.596;2022-10-04T03:01:06;9.60;;;7.53;;
62880;SDS011;48969;49.934;8.596;2022-10-04T03:03:35;9.98;;;7.65;;
62880;SDS011;48969;49.934;8.596;2022-10-04T03:06:08;10.35;;;7.85;;
62880;SDS011;48969;49.934;8.596;2022-10-04T03:08:51;10.60;;;7.28;;
62880;SDS011;48969;49.934;8.596;2022-10-04T03:11:18;9.23;;;6.70;;
62880;SDS011;48969;49.934;8.596;2022-10-04T03:13:45;10.15;;;7.22;;
62880;SDS011;48969;49.934;8.596;2022-10-04T03:16:11;9.70;;;7.22;;
62880;SDS011;48969;49.934;8.596;2022-10-04T03:18:36;8.63;;;7.25;;
62880;SDS011;48969;49.934;8.596;2022-10-04T03:21:06;11.88;;;7.68;;
62880;SDS011;48969;49.934;8.596;2022-10-04T03:23:32;11.38;;;7.53;;
62880;SDS011;48969;49.934;8.596;2022-10-04T03:28:23;8.88;;;7.32;;
62880;SDS011;48969;49.934;8.596;2022-10-04T03:30:49;12.07;;;8.82;;
62880;SDS011;48969;49.934;8.596;2022-10-04T03:33:18;12.15;;;8.15;;
62880;SDS011;48969;49.934;8.596;2022-10-04T03:35:45;12.23;;;8.70;;
62880;SDS011;48969;49.934;8.596;2022-10-04T03:38:11;13.15;;;8.75;;
62880;SDS011;48969;49.934;8.596;2022-10-04T03:40:37;10.35;;;8.05;;
62880;SDS011;48969;49.934;8.596;2022-10-04T03:43:05;11.75;;;8.88;;
62880;SDS011;48969;49.934;8.596;2022-10-04T03:45:35;13.75;;;8.90;;
62880;SDS011;48969;49.934;8.596;2022-10-04T03:48:03;11.70;;;9.23;;
62880;SDS011;48969;49.934;8.596;2022-10-04T03:50:33;11.73;;;8.60;;
62880;SDS011;48969;49.934;8.596;2022-10-04T03:53:00;13.02;;;9.00;;
62880;SDS011;48969;49.934;8.596;2022-10-04T03:55:32;11.30;;;9.07;;
62880;SDS011;48969;49.934;8.596;2022-10-04T03:57:58;12.23;;;8.73;;
62880;SDS011;48969;49.934;8.596;2022-10-04T04:00:24;10.23;;;9.10;;
62880;SDS011;48969;49.934;8.596;2022-10-04T04:08:18;13.57;;;9.52;;
62880;SDS011;48969;49.934;8.596;2022-10-04T04:10:47;11.07;;;9.50;;
62880;SDS011;48969;49.934;8.596;2022-10-04T04:15:42;14.05;;;9.40;;
62880;SDS011;48969;49.934;8.596;2022-10-04T04:18:11;12.00;;;9.25;;
62880;SDS011;48969;49.934;8.596;2022-10-04T04:20:37;11.40;;;8.63;;
62880;SDS011;48969;49.934;8.596;2022-10-04T04:23:04;10.55;;;7.95;;
62880;SDS011;48969;49.934;8.596;2022-10-04T04:25:37;12.13;;;9.02;;
62880;SDS011;48969;49.934;8.596;2022-10-04T04:28:10;17.10;;;9.00;;
62880;SDS011;48969;49.934;8.596;2022-10-04T04:30:37;11.30;;;9.60;;
62880;SDS011;48969;49.934;8.596;2022-10-04T04:33:06;10.68;;;9.20;;
62880;SDS011;48969;49.934;8.596;2022-10-04T04:35:33;14.15;;;9.32;;
62880;SDS011;48969;49.934;8.596;2022-10-04T04:38:01;13.30;;;9.05;;
62880;SDS011;48969;49.934;8.596;2022-10-04T04:40:26;11.57;;;9.07;;
62880;SDS011;48969;49.934;8.596;2022-10-04T04:42:51;10.32;;;8.52;;
62880;SDS011;48969;49.934;8.596;2022-10-04T04:45:18;9.23;;;7.88;;
62880;SDS011;48969;49.934;8.596;2022-10-04T04:47:49;12.38;;;8.88;;
62880;SDS011;48969;49.934;8.596;2022-10-04T04:50:17;12.60;;;8.88;;
62880;SDS011;48969;49.934;8.596;2022-10-04T04:52:43;12.77;;;9.07;;
62880;SDS011;48969;49.934;8.596;2022-10-04T04:55:15;14.23;;;9.20;;
62880;SDS011;48969;49.934;8.596;2022-10-04T04:57:40;12.13;;;8.88;;
62880;SDS011;48969;49.934;8.596;2022-10-04T05:00:13;12.05;;;8.60;;
62880;SDS011;48969;49.934;8.596;2022-10-04T05:02:40;8.90;;;7.57;;
62880;SDS011;48969;49.934;8.596;2022-10-04T05:07:39;9.77;;;8.18;;
62880;SDS011;48969;49.934;8.596;2022-10-04T05:12:51;11.77;;;8.45;;
62880;SDS011;48969;49.934;8.596;2022-10-04T05:15:16;10.35;;;8.35;;
62880;SDS011;48969;49.934;8.596;2022-10-04T05:17:41;11.48;;;7.65;;
62880;SDS011;48969;49.934;8.596;2022-10-04T05:20:09;12.98;;;8.00;;
62880;SDS011;48969;49.934;8.596;2022-10-04T05:22:42;9.93;;;7.47;;
62880;SDS011;48969;49.934;8.596;2022-10-04T05:25:13;9.45;;;7.40;;
62880;SDS011;48969;49.934;8.596;2022-10-04T05:27:43;10.20;;;7.57;;
62880;SDS011;48969;49.934;8.596;2022-10-04T05:32:59;12.15;;;7.93;;
62880;SDS011;48969;49.934;8.596;2022-10-04T05:35:26;10.15;;;7.70;;
62880;SDS011;48969;49.934;8.596;2022-10-04T05:42:48;10.98;;;7.57;;
62880;SDS011;48969;49.934;8.596;2022-10-04T05:47:40;14.52;;;7.50;;
62880;SDS011;48969;49.934;8.596;2022-10-04T05:50:12;12.52;;;7.40;;
62880;SDS011;48969;49.934;8.596;2022-10-04T05:52:39;13.98;;;7.30;;
62880;SDS011;48969;49.934;8.596;2022-10-04T05:55:20;10.45;;;7.63;;
62880;SDS011;48969;49.934;8.596;2022-10-04T06:00:18;10.73;;;6.65;;
62880;SDS011;48969;49.934;8.596;2022-10-04T06:05:27;7.90;;;6.63;;
62880;SDS011;48969;49.934;8.596;2022-10-04T06:13:28;9.27;;;6.25;;
62880;SDS011;48969;49.934;8.596;2022-10-04T06:16:08;12.13;;;6.30;;
62880;SDS011;48969;49.934;8.596;2022-10-04T06:21:23;13.43;;;6.95;;
62880;SDS011;48969;49.934;8.596;2022-10-04T06:23:53;8.63;;;6.63;;
62880;SDS011;48969;49.934;8.596;2022-10-04T06:26:22;6.13;;;5.38;;
62880;SDS011;48969;49.934;8.596;2022-10-04T06:28:57;9.50;;;5.90;;
62880;SDS011;48969;49.934;8.596;2022-10-04T06:31:41;6.57;;;5.80;;
62880;SDS011;48969;49.934;8.596;2022-10-04T06:34:27;3.72;;;1.67;;
62880;SDS011;48969;49.934;8.596;2022-10-04T06:44:38;9.05;;;5.50;;
62880;SDS011;48969;49.934;8.596;2022-10-04T06:49:55;8.80;;;5.90;;
62880;SDS011;48969;49.934;8.596;2022-10-04T06:57:31;6.78;;;5.38;;
62880;SDS011;48969;49.934;8.596;2022-10-04T07:00:03;6.60;;;5.13;;
62880;SDS011;48969;49.934;8.596;2022-10-04T07:02:39;7.35;;;4.88;;
62880;SDS011;48969;49.934;8.596;2022-10-04T07:10:55;7.68;;;4.80;;
62880;SDS011;48969;49.934;8.596;2022-10-04T07:18:26;6.30;;;5.13;;
62880;SDS011;48969;49.934;8.596;2022-10-04T07:21:01;5.88;;;4.97;;
62880;SDS011;48969;49.934;8.596;2022-10-04T07:23:33;1.92;;;1.30;;
62880;SDS011;48969;49.934;8.596;2022-10-04T07:26:02;6.72;;;5.28;;
62880;SDS011;48969;49.934;8.596;2022-10-04T07:28:31;5.90;;;5.30;;
62880;SDS011;48969;49.934;8.596;2022-10-04T07:31:23;5.63;;;4.65;;
62880;SDS011;48969;49.934;8.596;2022-10-04T07:33:53;5.57;;;4.95;;
62880;SDS011;48969;49.934;8.596;2022-10-04T07:37:05;10.48;;;5.65;;
62880;SDS011;48969;49.934;8.596;2022-10-04T07:39:18;5.25;;;4.72;;
62880;SDS011;48969;49.934;8.596;2022-10-04T07:41:51;6.47;;;4.95;;
62880;SDS011;48969;49.934;8.596;2022-10-04T07:44:36;10.70;;;5.35;;
62880;SDS011;48969;49.934;8.596;2022-10-04T07:47:18;5.97;;;4.50;;
62880;SDS011;48969;49.934;8.596;2022-10-04T07:49:44;5.40;;;4.60;;
62880;SDS011;48969;49.934;8.596;2022-10-04T07:52:19;6.20;;;4.53;;
62880;SDS011;48969;49.934;8.596;2022-10-04T07:57:32;6.25;;;4.70;;
62880;SDS011;48969;49.934;8.596;2022-10-04T08:10:42;6.35;;;5.30;;
62880;SDS011;48969;49.934;8.596;2022-10-04T08:13:20;7.32;;;4.93;;
62880;SDS011;48969;49.934;8.596;2022-10-04T08:15:47;7.47;;;5.07;;
62880;SDS011;48969;49.934;8.596;2022-10-04T08:23:26;6.43;;;4.83;;
62880;SDS011;48969;49.934;8.596;2022-10-04T08:25:56;11.07;;;5.13;;
62880;SDS011;48969;49.934;8.596;2022-10-04T08:28:38;7.85;;;5.40;;
62880;SDS011;48969;49.934;8.596;2022-10-04T08:34:20;7.35;;;5.25;;
62880;SDS011;48969;49.934;8.596;2022-10-04T08:39:43;6.75;;;5.03;;
62880;SDS011;48969;49.934;8.596;2022-10-04T08:44:47;6.28;;;5.40;;
62880;SDS011;48969;49.934;8.596;2022-10-04T08:47:31;9.27;;;6.10;;
62880;SDS011;48969;49.934;8.596;2022-10-04T08:50:07;8.60;;;5.78;;
62880;SDS011;48969;49.934;8.596;2022-10-04T09:00:15;9.48;;;5.60;;
62880;SDS011;48969;49.934;8.596;2022-10-04T09:16:42;7.40;;;5.03;;
62880;SDS011;48969;49.934;8.596;2022-10-04T09:26:46;6.97;;;5.53;;
62880;SDS011;48969;49.934;8.596;2022-10-04T09:42:41;10.30;;;6.03;;
62880;SDS011;48969;49.934;8.596;2022-10-04T09:47:44;7.70;;;5.88;;
62880;SDS011;48969;49.934;8.596;2022-10-04T09:58:39;8.05;;;5.88;;
62880;SDS011;48969;49.934;8.596;2022-10-04T10:03:45;9.20;;;5.93;;
62880;SDS011;48969;49.934;8.596;2022-10-04T10:09:00;16.35;;;7.05;;
62880;SDS011;48969;49.934;8.596;2022-10-04T10:11:39;8.02;;;5.82;;
62880;SDS011;48969;49.934;8.596;2022-10-04T10:17:04;7.47;;;5.78;;
62880;SDS011;48969;49.934;8.596;2022-10-04T10:19:45;8.82;;;5.78;;
62880;SDS011;48969;49.934;8.596;2022-10-04T10:35:58;9.45;;;5.90;;
62880;SDS011;48969;49.934;8.596;2022-10-04T10:41:29;7.50;;;6.15;;
62880;SDS011;48969;49.934;8.596;2022-10-04T11:00:23;9.90;;;7.43;;
62880;SDS011;48969;49.934;8.596;2022-10-04T11:13:09;10.27;;;7.35;;
62880;SDS011;48969;49.934;8.596;2022-10-04T11:28:53;24.95;;;9.13;;
62880;SDS011;48969;49.934;8.596;2022-10-04T11:31:31;10.07;;;7.53;;
62880;SDS011;48969;49.934;8.596;2022-10-04T12:20:05;11.68;;;8.23;;
62880;SDS011;48969;49.934;8.596;2022-10-04T12:33:09;11.68;;;8.25;;
62880;SDS011;48969;49.934;8.596;2022-10-04T12:43:24;13.15;;;10.25;;
62880;SDS011;48969;49.934;8.596;2022-10-04T12:46:05;11.25;;;8.45;;
62880;SDS011;48969;49.934;8.596;2022-10-04T12:53:45;10.25;;;6.97;;
62880;SDS011;48969;49.934;8.596;2022-10-04T12:59:25;10.07;;;7.18;;
62880;SDS011;48969;49.934;8.596;2022-10-04T13:04:21;8.88;;;6.20;;
62880;SDS011;48969;49.934;8.596;2022-10-04T13:14:45;8.05;;;6.30;;
62880;SDS011;48969;49.934;8.596;2022-10-04T13:22:29;11.30;;;7.47;;
62880;SDS011;48969;49.934;8.596;2022-10-04T13:25:13;9.60;;;6.50;;
62880;SDS011;48969;49.934;8.596;2022-10-04T13:30:17;12.30;;;7.70;;
62880;SDS011;48969;49.934;8.596;2022-10-04T13:32:50;11.90;;;7.10;;
62880;SDS011;48969;49.934;8.596;2022-10-04T13:35:19;8.40;;;6.55;;
62880;SDS011;48969;49.934;8.596;2022-10-04T13:50:57;9.77;;;6.63;;
62880;SDS011;48969;49.934;8.596;2022-10-04T13:57:02;11.02;;;6.93;;
62880;SDS011;48969;49.934;8.596;2022-10-04T14:02:17;10.80;;;6.88;;
62880;SDS011;48969;49.934;8.596;2022-10-04T14:07:33;13.50;;;8.60;;
62880;SDS011;48969;49.934;8.596;2022-10-04T14:25:51;10.20;;;7.80;;
62880;SDS011;48969;49.934;8.596;2022-10-04T14:33:43;18.60;;;8.40;;
62880;SDS011;48969;49.934;8.596;2022-10-04T14:46:37;9.50;;;6.93;;
62880;SDS011;48969;49.934;8.596;2022-10-04T14:51:59;9.30;;;6.97;;
62880;SDS011;48969;49.934;8.596;2022-10-04T14:54:41;10.43;;;7.30;;
62880;SDS011;48969;49.934;8.596;2022-10-04T15:02:35;8.55;;;6.55;;
62880;SDS011;48969;49.934;8.596;2022-10-04T15:07:47;9.15;;;6.55;;
62880;SDS011;48969;49.934;8.596;2022-10-04T15:12:59;11.02;;;6.88;;
62880;SDS011;48969;49.934;8.596;2022-10-04T15:20:49;9.20;;;6.45;;
62880;SDS011;48969;49.934;8.596;2022-10-04T15:25:45;10.90;;;6.60;;
62880;SDS011;48969;49.934;8.596;2022-10-04T15:33:57;9.50;;;6.00;;
62880;SDS011;48969;49.934;8.596;2022-10-04T15:36:31;9.52;;;6.47;;
62880;SDS011;48969;49.934;8.596;2022-10-04T15:39:04;11.10;;;6.30;;
62880;SDS011;48969;49.934;8.596;2022-10-04T15:47:06;9.63;;;6.25;;
62880;SDS011;48969;49.934;8.596;2022-10-04T15:55:06;11.23;;;6.80;;
62880;SDS011;48969;49.934;8.596;2022-10-04T16:02:39;9.45;;;6.20;;
62880;SDS011;48969;49.934;8.596;2022-10-04T16:05:16;8.70;;;6.60;;
62880;SDS011;48969;49.934;8.596;2022-10-04T16:15:29;11.48;;;6.82;;
62880;SDS011;48969;49.934;8.596;2022-10-04T17:36:36;11.65;;;6.63;;
62880;SDS011;48969;49.934;8.596;2022-10-04T18:26:58;11.52;;;7.45;;
62880;SDS011;48969;49.934;8.596;2022-10-04T18:29:36;9.65;;;7.63;;
62880;SDS011;48969;49.934;8.596;2022-10-04T18:34:51;12.68;;;8.48;;
62880;SDS011;48969;49.934;8.596;2022-10-04T18:37:18;8.48;;;7.57;;
62880;SDS011;48969;49.934;8.596;2022-10-04T18:39:46;11.02;;;8.00;;
62880;SDS011;48969;49.934;8.596;2022-10-04T18:44:45;11.15;;;8.02;;
62880;SDS011;48969;49.934;8.596;2022-10-04T18:47:15;11.05;;;8.07;;
62880;SDS011;48969;49.934;8.596;2022-10-04T18:49:46;10.60;;;7.05;;
62880;SDS011;48969;49.934;8.596;2022-10-04T18:52:16;9.48;;;6.82;;
62880;SDS011;48969;49.934;8.596;2022-10-04T18:54:48;10.38;;;7.80;;
62880;SDS011;48969;49.934;8.596;2022-10-04T19:00:01;10.93;;;8.15;;
62880;SDS011;48969;49.934;8.596;2022-10-04T19:03:24;9.90;;;7.47;;
62880;SDS011;48969;49.934;8.596;2022-10-04T19:05:38;8.82;;;7.93;;
62880;SDS011;48969;49.934;8.596;2022-10-04T19:26:24;11.65;;;8.55;;
62880;SDS011;48969;49.934;8.596;2022-10-04T19:31:49;10.27;;;8.55;;
62880;SDS011;48969;49.934;8.596;2022-10-04T19:34:20;10.98;;;7.95;;
62880;SDS011;48969;49.934;8.596;2022-10-04T19:36:59;9.85;;;7.97;;
62880;SDS011;48969;49.934;8.596;2022-10-04T19:41:55;13.40;;;7.95;;
62880;SDS011;48969;49.934;8.596;2022-10-04T19:54:42;11.60;;;8.18;;
62880;SDS011;48969;49.934;8.596;2022-10-04T19:57:10;10.57;;;8.25;;
62880;SDS011;48969;49.934;8.596;2022-10-04T19:59:38;9.73;;;8.25;;
62880;SDS011;48969;49.934;8.596;2022-10-04T20:02:07;10.30;;;8.38;;
62880;SDS011;48969;49.934;8.596;2022-10-04T20:04:33;9.40;;;7.90;;
62880;SDS011;48969;49.934;8.596;2022-10-04T20:13:23;12.43;;;8.00;;
62880;SDS011;48969;49.934;8.596;2022-10-04T20:15:52;9.65;;;7.75;;
62880;SDS011;48969;49.934;8.596;2022-10-04T20:24:09;12.35;;;7.70;;
62880;SDS011;48969;49.934;8.596;2022-10-04T20:31:59;9.57;;;6.72;;
62880;SDS011;48969;49.934;8.596;2022-10-04T20:34:31;9.30;;;6.97;;
62880;SDS011;48969;49.934;8.596;2022-10-04T20:36:57;7.40;;;6.38;;
62880;SDS011;48969;49.934;8.596;2022-10-04T20:42:07;8.07;;;6.55;;
62880;SDS011;48969;49.934;8.596;2022-10-04T20:44:56;11.38;;;7.13;;
62880;SDS011;48969;49.934;8.596;2022-10-04T20:47:24;9.30;;;6.88;;
62880;SDS011;48969;49.934;8.596;2022-10-04T20:49:52;9.65;;;6.65;;
62880;SDS011;48969;49.934;8.596;2022-10-04T20:52:23;9.73;;;7.10;;
62880;SDS011;48969;49.934;8.596;2022-10-04T20:54:50;9.23;;;6.75;;
62880;SDS011;48969;49.934;8.596;2022-10-04T20:57:16;10.65;;;7.00;;
62880;SDS011;48969;49.934;8.596;2022-10-04T20:59:42;9.10;;;7.22;;
62880;SDS011;48969;49.934;8.596;2022-10-04T21:02:12;10.25;;;6.97;;
62880;SDS011;48969;49.934;8.596;2022-10-04T21:04:39;12.75;;;6.47;;
62880;SDS011;48969;49.934;8.596;2022-10-04T21:07:11;12.48;;;6.95;;
62880;SDS011;48969;49.934;8.596;2022-10-04T21:09:36;10.98;;;6.75;;
62880;SDS011;48969;49.934;8.596;2022-10-04T21:12:02;9.27;;;6.88;;
62880;SDS011;48969;49.934;8.596;2022-10-04T21:14:28;13.18;;;7.57;;
62880;SDS011;48969;49.934;8.596;2022-10-04T21:22:07;10.82;;;6.78;;
62880;SDS011;48969;49.934;8.596;2022-10-04T21:24:41;11.73;;;6.30;;
62880;SDS011;48969;49.934;8.596;2022-10-04T21:29:32;8.27;;;6.95;;
62880;SDS011;48969;49.934;8.596;2022-10-04T21:31:57;8.63;;;6.70;;
62880;SDS011;48969;49.934;8.596;2022-10-04T21:34:23;7.70;;;6.63;;
62880;SDS011;48969;49.934;8.596;2022-10-04T21:36:48;10.57;;;7.00;;
62880;SDS011;48969;49.934;8.596;2022-10-04T21:39:13;10.55;;;6.97;;
62880;SDS011;48969;49.934;8.596;2022-10-04T21:41:39;7.50;;;6.70;;
62880;SDS011;48969;49.934;8.596;2022-10-04T21:44:04;8.60;;;6.97;;
62880;SDS011;48969;49.934;8.596;2022-10-04T21:46:29;9.00;;;6.55;;
62880;SDS011;48969;49.934;8.596;2022-10-04T21:48:54;9.47;;;6.83;;
62880;SDS011;48969;49.934;8.596;2022-10-04T21:51:19;8.05;;;6.50;;
62880;SDS011;48969;49.934;8.596;2022-10-04T21:53:45;7.67;;;6.03;;
62880;SDS011;48969;49.934;8.596;2022-10-04T21:56:10;9.90;;;6.00;;
62880;SDS011;48969;49.934;8.596;2022-10-04T21:58:35;10.40;;;6.10;;
62880;SDS011;48969;49.934;8.596;2022-10-04T22:01:00;8.27;;;6.50;;
62880;SDS011;48969;49.934;8.596;2022-10-04T22:03:25;9.50;;;6.63;;
62880;SDS011;48969;49.934;8.596;2022-10-04T22:05:50;7.78;;;6.53;;
62880;SDS011;48969;49.934;8.596;2022-10-04T22:08:15;10.23;;;6.63;;
62880;SDS011;48969;49.934;8.596;2022-10-04T22:10:41;7.65;;;6.65;;
62880;SDS011;48969;49.934;8.596;2022-10-04T22:13:07;9.88;;;6.60;;
62880;SDS011;48969;49.934;8.596;2022-10-04T22:15:32;9.65;;;6.68;;
62880;SDS011;48969;49.934;8.596;2022-10-04T22:17:57;8.73;;;6.78;;
62880;SDS011;48969;49.934;8.596;2022-10-04T22:20:23;11.88;;;7.03;;
62880;SDS011;48969;49.934;8.596;2022-10-04T22:22:48;9.50;;;6.97;;
62880;SDS011;48969;49.934;8.596;2022-10-04T22:25:17;9.90;;;6.35;;
62880;SDS011;48969;49.934;8.596;2022-10-04T22:27:43;8.35;;;6.30;;
62880;SDS011;48969;49.934;8.596;2022-10-04T22:30:28;8.23;;;6.38;;
62880;SDS011;48969;49.934;8.596;2022-10-04T22:32:55;8.77;;;6.47;;
62880;SDS011;48969;49.934;8.596;2022-10-04T22:35:21;7.10;;;6.40;;
62880;SDS011;48969;49.934;8.596;2022-10-04T22:37:46;9.73;;;6.10;;
62880;SDS011;48969;49.934;8.596;2022-10-04T22:40:13;7.88;;;6.13;;
62880;SDS011;48969;49.934;8.596;2022-10-04T22:42:39;7.55;;;5.93;;
62880;SDS011;48969;49.934;8.596;2022-10-04T22:45:05;8.20;;;6.13;;
62880;SDS011;48969;49.934;8.596;2022-10-04T22:47:33;7.50;;;5.90;;
62880;SDS011;48969;49.934;8.596;2022-10-04T22:49:58;8.15;;;6.10;;
62880;SDS011;48969;49.934;8.596;2022-10-04T22:52:23;6.25;;;5.55;;
62880;SDS011;48969;49.934;8.596;2022-10-04T22:54:50;11.02;;;6.15;;
62880;SDS011;48969;49.934;8.596;2022-10-04T22:57:16;6.63;;;5.30;;
62880;SDS011;48969;49.934;8.596;2022-10-04T22:59:42;7.30;;;5.93;;
62880;SDS011;48969;49.934;8.596;2022-10-04T23:02:12;7.80;;;5.70;;
62880;SDS011;48969;49.934;8.596;2022-10-04T23:04:38;6.57;;;5.20;;
62880;SDS011;48969;49.934;8.596;2022-10-04T23:07:04;7.05;;;5.35;;
62880;SDS011;48969;49.934;8.596;2022-10-04T23:09:29;8.70;;;6.00;;
62880;SDS011;48969;49.934;8.596;2022-10-04T23:11:54;9.20;;;5.70;;
62880;SDS011;48969;49.934;8.596;2022-10-04T23:14:20;7.83;;;5.93;;
62880;SDS011;48969;49.934;8.596;2022-10-04T23:16:45;8.57;;;6.05;;
62880;SDS011;48969;49.934;8.596;2022-10-04T23:19:11;8.80;;;6.38;;
62880;SDS011;48969;49.934;8.596;2022-10-04T23:21:37;6.97;;;6.30;;
62880;SDS011;48969;49.934;8.596;2022-10-04T23:24:11;8.07;;;6.07;;
62880;SDS011;48969;49.934;8.596;2022-10-04T23:26:39;8.90;;;5.40;;
62880;SDS011;48969;49.934;8.596;2022-10-04T23:29:14;10.18;;;5.40;;
62880;SDS011;48969;49.934;8.596;2022-10-04T23:31:40;7.43;;;5.97;;
62880;SDS011;48969;49.934;8.596;2022-10-04T23:34:12;7.75;;;6.03;;
62880;SDS011;48969;49.934;8.596;2022-10-04T23:36:38;9.52;;;6.32;;
62880;SDS011;48969;49.934;8.596;2022-10-04T23:39:05;10.70;;;6.72;;
62880;SDS011;48969;49.934;8.596;2022-10-04T23:41:33;7.38;;;5.90;;
62880;SDS011;48969;49.934;8.596;2022-10-04T23:43:59;6.85;;;6.00;;
62880;SDS011;48969;49.934;8.596;2022-10-04T23:46:24;8.40;;;5.63;;
62880;SDS011;48969;49.934;8.596;2022-10-04T23:48:49;10.35;;;6.15;;
62880;SDS011;48969;49.934;8.596;2022-10-04T23:51:15;7.97;;;6.35;;
62880;SDS011;48969;49.934;8.596;2022-10-04T23:53:41;8.52;;;5.93;;
62880;SDS011;48969;49.934;8.596;2022-10-04T23:56:11;7.60;;;6.25;;
62880;SDS011;48969;49.934;8.596;2022-10-04T23:58:40;8.48;;;5.85;;
